Time;durP1;ratioP1;P1;durP2;ratioP2;P2;SDS_P1;SDS_P2;PMS_P1;PMS_P2;Temp;Humidity;BMP_temperature;BMP_pressure;BME280_temperature;BME280_humidity;BME280_pressure;Samples;Min_cycle;Max_cycle;Signal;HPM_P1;HPM_P2
2023/07/02 00:01:01;;;;;;;3.23;2.60;;;16.20;99.90;;;;;;5038856;28;20432;-86
2023/07/02 00:03:27;;;;;;;6.60;2.97;;;;;;;;;;5040220;28;20535;-86
2023/07/02 00:05:54;;;;;;;3.03;2.57;;;;;;;;;;5028591;28;20440;-86
2023/07/02 00:08:20;;;;;;;12.33;2.93;;;;;;;;;;5045687;28;20439;-85
2023/07/02 00:10:46;;;;;;;4.40;3.17;;;16.10;99.90;;;;;;5028228;28;20487;-86
2023/07/02 00:13:12;;;;;;;6.23;2.90;;;;;;;;;;5035833;28;20440;-86
2023/07/02 00:15:38;;;;;;;6.80;2.93;;;;;;;;;;5039017;28;20251;-85
2023/07/02 00:18:04;;;;;;;6.17;2.90;;;;;;;;;;5032128;28;20504;-86
2023/07/02 00:20:34;;;;;;;5.97;3.20;;;;;;;;;;5040304;28;21276;-85
2023/07/02 00:23:00;;;;;;;2.83;2.10;;;;;;;;;;5052445;28;21174;-85
2023/07/02 00:25:26;;;;;;;4.93;3.57;;;;;;;;;;5033861;28;20463;-86
2023/07/02 00:27:52;;;;;;;4.20;2.77;;;15.70;99.90;;;;;;5033142;28;20458;-86
2023/07/02 00:30:18;;;;;;;5.57;2.83;;;;;;;;;;5040218;28;20443;-86
2023/07/02 00:32:44;;;;;;;3.70;2.40;;;;;;;;;;5041169;28;20214;-85
2023/07/02 00:35:10;;;;;;;4.57;2.90;;;;;;;;;;5038125;28;20471;-87
2023/07/02 00:37:36;;;;;;;3.27;2.47;;;;;;;;;;5055110;28;20451;-86
2023/07/02 00:40:02;;;;;;;4.03;2.60;;;;;;;;;;5039215;28;20427;-85
2023/07/02 00:42:29;;;;;;;5.33;3.30;;;;;;;;;;5028403;28;20508;-87
2023/07/02 00:44:56;;;;;;;3.70;3.00;;;;;;;;;;5028496;28;20534;-86
2023/07/02 00:47:22;;;;;;;4.97;2.93;;;;;;;;;;5030167;28;20459;-86
2023/07/02 00:49:48;;;;;;;3.37;3.00;;;;;;;;;;5025494;28;20450;-86
2023/07/02 00:52:14;;;;;;;4.83;3.03;;;16.30;99.90;;;;;;5028835;28;20497;-87
2023/07/02 00:54:40;;;;;;;4.87;3.20;;;;;;;;;;5028270;28;20482;-85
2023/07/02 00:57:07;;;;;;;4.27;2.80;;;16.30;99.90;;;;;;5033349;28;20538;-85
2023/07/02 00:59:35;;;;;;;5.47;3.30;;;;;;;;;;5032893;28;20443;-86
2023/07/02 01:02:01;;;;;;;6.60;3.27;;;;;;;;;;5041127;28;20438;-86
2023/07/02 01:04:27;;;;;;;3.40;2.70;;;;;;;;;;5028717;28;20430;-86
2023/07/02 01:06:57;;;;;;;2.90;2.37;;;16.40;99.90;;;;;;5028841;28;20459;-85
2023/07/02 01:09:25;;;;;;;6.40;3.73;;;;;;;;;;5027137;28;20427;-87
2023/07/02 01:11:55;;;;;;;6.33;2.97;;;16.40;99.90;;;;;;5022784;28;20450;-85
2023/07/02 01:14:26;;;;;;;4.47;2.90;;;16.40;99.90;;;;;;5021656;28;20468;-85
2023/07/02 01:16:53;;;;;;;3.47;2.43;;;16.40;99.90;;;;;;5031120;28;20993;-86
2023/07/02 01:19:41;;;;;;;3.17;1.93;;;16.40;99.90;;;;;;5044572;28;20439;-85
2023/07/02 01:22:07;;;;;;;4.93;2.70;;;;;;;;;;5023613;28;20431;-85
2023/07/02 01:24:33;;;;;;;9.60;3.47;;;;;;;;;;5025197;28;20443;-86
2023/07/02 01:27:01;;;;;;;8.60;2.80;;;;;;;;;;5025312;28;20462;-85
2023/07/02 01:29:29;;;;;;;3.30;2.60;;;16.40;99.90;;;;;;5020905;28;20463;-85
2023/07/02 01:31:55;;;;;;;5.67;2.60;;;;;;;;;;5024161;28;20432;-86
2023/07/02 01:34:21;;;;;;;2.80;2.60;;;;;;;;;;5028995;28;20930;-86
2023/07/02 01:36:47;;;;;;;6.03;2.70;;;;;;;;;;5024449;28;20475;-85
2023/07/02 01:39:13;;;;;;;5.80;2.67;;;;;;;;;;5021688;28;20435;-84
2023/07/02 01:41:50;;;;;;;3.07;2.60;;;16.30;99.90;;;;;;5043694;28;20442;-86
2023/07/02 01:44:16;;;;;;;4.07;2.63;;;;;;;;;;5025488;28;20454;-86
2023/07/02 01:46:42;;;;;;;4.13;3.13;;;;;;;;;;5026827;28;20530;-85
2023/07/02 01:49:08;;;;;;;3.47;2.30;;;;;;;;;;5030174;28;20462;-85
2023/07/02 01:51:34;;;;;;;4.10;3.00;;;12.60;99.90;;;;;;5032556;28;20969;-87
2023/07/02 01:54:00;;;;;;;4.37;2.10;;;;;;;;;;5027691;28;20439;-87
2023/07/02 01:56:26;;;;;;;3.50;2.80;;;;;;;;;;5027861;28;20476;-86
2023/07/02 01:58:53;;;;;;;2.80;2.10;;;16.40;99.90;;;;;;5032739;28;20598;-86
2023/07/02 02:01:19;;;;;;;2.57;2.37;;;;;;;;;;5039009;28;20448;-85
2023/07/02 02:03:45;;;;;;;5.90;1.90;;;;;;;;;;5030363;28;20817;-85
2023/07/02 02:06:11;;;;;;;5.20;3.27;;;;;;;;;;5025217;28;20471;-86
2023/07/02 02:08:37;;;;;;;4.93;2.27;;;;;;;;;;5024600;28;20447;-86
2023/07/02 02:11:03;;;;;;;3.33;2.60;;;;;;;;;;5027184;28;20471;-86
2023/07/02 02:13:29;;;;;;;3.33;2.70;;;;;;;;;;5025007;28;20448;-86
2023/07/02 02:15:55;;;;;;;5.77;3.00;;;;;;;;;;5028016;28;20459;-84
2023/07/02 02:18:21;;;;;;;6.60;3.30;;;;;;;;;;5029559;28;20423;-87
2023/07/02 02:20:47;;;;;;;5.10;3.57;;;;;;;;;;5028601;28;21153;-87
2023/07/02 02:23:13;;;;;;;6.33;3.57;;;;;;;;;;5028932;28;21021;-84
2023/07/02 02:25:39;;;;;;;4.80;2.80;;;;;;;;;;5030066;28;20450;-86
2023/07/02 02:28:04;;;;;;;4.33;2.80;;;;;;;;;;5032215;28;20454;-86
2023/07/02 02:30:30;;;;;;;3.90;2.27;;;;;;;;;;5032849;28;20443;-87
2023/07/02 02:32:56;;;;;;;4.87;2.80;;;;;;;;;;5032983;28;20435;-86
2023/07/02 02:35:22;;;;;;;7.87;3.43;;;;;;;;;;5030467;28;20477;-84
2023/07/02 02:37:48;;;;;;;4.83;2.50;;;;;;;;;;5032534;28;20470;-86
2023/07/02 02:40:14;;;;;;;6.07;3.43;;;;;;;;;;5048581;28;20516;-85
2023/07/02 02:42:40;;;;;;;10.83;4.27;;;;;;;;;;5044468;28;20459;-86
2023/07/02 02:45:06;;;;;;;6.57;4.47;;;15.50;99.90;;;;;;5032755;28;21907;-84
2023/07/02 02:47:32;;;;;;;5.10;3.53;;;;;;;;;;5026645;28;21037;-86
2023/07/02 02:49:59;;;;;;;7.07;4.00;;;15.50;99.90;;;;;;5030996;28;20446;-86
2023/07/02 02:52:25;;;;;;;6.50;3.67;;;;;;;;;;5033800;28;20440;-85
2023/07/02 02:54:52;;;;;;;7.47;4.37;;;;;;;;;;5055192;28;20440;-86
2023/07/02 02:57:18;;;;;;;14.93;4.57;;;;;;;;;;5029457;28;20479;-82
2023/07/02 02:59:44;;;;;;;9.10;4.10;;;;;;;;;;5031331;28;20562;-86
2023/07/02 03:02:10;;;;;;;10.07;3.43;;;;;;;;;;5035502;28;20432;-85
2023/07/02 03:04:39;;;;;;;4.63;3.63;;;;;;;;;;5044152;28;20947;-86
2023/07/02 03:07:05;;;;;;;9.40;3.90;;;;;;;;;;5026817;28;20502;-85
2023/07/02 03:09:31;;;;;;;13.00;4.73;;;;;;;;;;5025812;28;20514;-87
2023/07/02 03:11:57;;;;;;;6.60;3.97;;;;;;;;;;5028993;28;20916;-83
2023/07/02 03:14:23;;;;;;;5.20;3.40;;;;;;;;;;5032413;28;20440;-86
2023/07/02 03:16:49;;;;;;;15.77;4.90;;;;;;;;;;5039939;28;22513;-86
2023/07/02 03:19:15;;;;;;;6.00;3.60;;;;;;;;;;5040149;28;20432;-83
2023/07/02 03:21:43;;;;;;;9.10;3.60;;;15.40;99.90;;;;;;5046289;28;20529;-85
2023/07/02 03:24:11;;;;;;;10.70;4.50;;;;;;;;;;5031781;28;20439;-85
2023/07/02 03:26:37;;;;;;;6.50;4.03;;;;;;;;;;5027876;28;20472;-86
2023/07/02 03:29:03;;;;;;;7.67;4.30;;;;;;;;;;5043749;28;20435;-86
2023/07/02 03:31:29;;;;;;;13.83;5.30;;;;;;;;;;5035616;28;20463;-86
2023/07/02 03:33:55;;;;;;;9.37;4.73;;;;;;;;;;5032934;28;20443;-86
2023/07/02 03:36:21;;;;;;;9.17;4.33;;;;;;;;;;5032604;28;20559;-85
2023/07/02 03:38:47;;;;;;;10.23;4.17;;;;;;;;;;5029128;28;21108;-86
2023/07/02 03:41:13;;;;;;;11.90;4.27;;;;;;;;;;5030687;28;20431;-85
2023/07/02 03:43:39;;;;;;;9.30;7.40;;;;;;;;;;5027866;28;20439;-86
2023/07/02 03:46:05;;;;;;;12.23;5.43;;;;;;;;;;5029183;28;20438;-86
2023/07/02 03:48:31;;;;;;;7.20;4.30;;;;;;;;;;5031152;28;20449;-85
2023/07/02 03:50:57;;;;;;;7.10;4.70;;;;;;;;;;5044806;28;20443;-86
2023/07/02 03:53:22;;;;;;;6.97;3.80;;;;;;;;;;5036843;28;20443;-87
2023/07/02 03:55:48;;;;;;;11.50;4.40;;;;;;;;;;5033896;28;20549;-86
2023/07/02 03:58:14;;;;;;;9.43;5.60;;;;;;;;;;5051474;28;20455;-87
2023/07/02 04:00:41;;;;;;;8.57;4.40;;;;;;;;;;5040986;28;20467;-87
2023/07/02 04:03:07;;;;;;;13.13;3.97;;;;;;;;;;5041491;28;20463;-86
2023/07/02 04:05:33;;;;;;;10.13;4.80;;;;;;;;;;5039215;28;21161;-86
2023/07/02 04:07:59;;;;;;;12.60;5.23;;;;;;;;;;5038890;28;20455;-87
2023/07/02 04:10:25;;;;;;;11.73;5.40;;;;;;;;;;5037314;28;20455;-85
2023/07/02 04:12:51;;;;;;;10.97;4.40;;;;;;;;;;5032489;28;20435;-87
2023/07/02 04:15:17;;;;;;;10.67;4.97;;;;;;;;;;5028986;28;20521;-87
2023/07/02 04:17:43;;;;;;;10.97;5.03;;;;;;;;;;5029227;28;20474;-86
2023/07/02 04:20:09;;;;;;;9.73;4.20;;;;;;;;;;5032984;28;20435;-85
2023/07/02 04:22:35;;;;;;;6.10;3.63;;;;;;;;;;5026488;28;20474;-87
2023/07/02 04:25:01;;;;;;;10.23;4.03;;;;;;;;;;5029347;28;20467;-87
2023/07/02 04:27:27;;;;;;;10.53;4.20;;;;;;;;;;5029013;28;20542;-86
2023/07/02 04:29:55;;;;;;;10.50;4.23;;;15.80;99.90;;;;;;5026041;28;20815;-85
2023/07/02 04:32:21;;;;;;;6.10;2.70;;;;;;;;;;5029431;28;20442;-85
2023/07/02 04:34:47;;;;;;;10.03;4.17;;;;;;;;;;5029934;28;21449;-85
2023/07/02 04:37:15;;;;;;;9.47;4.10;;;;;;;;;;5043642;28;20481;-86
2023/07/02 04:39:41;;;;;;;7.57;4.10;;;;;;;;;;5033904;28;20431;-86
2023/07/02 04:42:09;;;;;;;10.40;4.70;;;15.90;99.90;;;;;;5026911;28;20428;-86
2023/07/02 04:44:35;;;;;;;6.00;3.73;;;;;;;;;;5025802;28;20458;-86
2023/07/02 04:47:02;;;;;;;12.80;4.50;;;15.90;99.90;;;;;;5022797;28;20468;-86
2023/07/02 04:49:27;;;;;;;4.57;3.23;;;;;;;;;;5031768;28;20450;-84
2023/07/02 04:51:54;;;;;;;4.47;2.80;;;;;;;;;;5029713;28;20435;-85
2023/07/02 04:54:23;;;;;;;9.07;4.67;;;16.10;99.90;;;;;;5032313;28;20439;-85
2023/07/02 04:56:49;;;;;;;8.70;3.60;;;;;;;;;;5028788;28;20479;-86
2023/07/02 04:59:15;;;;;;;10.10;3.90;;;;;;;;;;5031028;28;20457;-87
2023/07/02 05:01:41;;;;;;;5.87;3.57;;;;;;;;;;5028767;28;20436;-87
2023/07/02 05:04:09;;;;;;;4.97;2.70;;;16.30;99.90;;;;;;5030742;28;20435;-85
2023/07/02 05:06:35;;;;;;;5.27;3.20;;;;;;;;;;5031795;28;20554;-87
2023/07/02 05:09:01;;;;;;;6.93;3.23;;;;;;;;;;5043314;28;20496;-86
2023/07/02 05:11:27;;;;;;;5.97;2.67;;;;;;;;;;5027721;28;20500;-86
2023/07/02 05:13:53;;;;;;;10.10;4.23;;;;;;;;;;5024566;28;20975;-87
2023/07/02 05:16:19;;;;;;;10.13;3.40;;;;;;;;;;5027168;28;20634;-86
2023/07/02 05:18:45;;;;;;;3.70;2.80;;;;;;;;;;5030635;28;20922;-86
2023/07/02 05:21:11;;;;;;;6.53;3.67;;;16.70;99.90;;;;;;5034643;28;20431;-87
2023/07/02 05:23:37;;;;;;;5.30;3.10;;;;;;;;;;5038983;28;20431;-85
2023/07/02 05:26:03;;;;;;;9.67;3.70;;;;;;;;;;5027535;28;20472;-86
2023/07/02 05:28:29;;;;;;;5.80;3.00;;;;;;;;;;5029575;28;20455;-86
2023/07/02 05:30:55;;;;;;;13.07;3.90;;;;;;;;;;5027003;28;20437;-85
2023/07/02 05:33:22;;;;;;;9.47;3.83;;;;;;;;;;5045430;28;20520;-87
2023/07/02 05:35:48;;;;;;;11.10;4.57;;;18.80;99.90;;;;;;5022707;28;20891;-87
2023/07/02 05:38:14;;;;;;;7.40;3.40;;;;;;;;;;5027803;28;20827;-85
2023/07/02 05:40:40;;;;;;;10.43;3.90;;;;;;;;;;5026982;28;20440;-85
2023/07/02 05:43:05;;;;;;;8.20;4.70;;;;;;;;;;5026366;28;20435;-86
2023/07/02 05:45:32;;;;;;;11.67;6.30;;;;;;;;;;5028404;28;20590;-87
2023/07/02 05:47:58;;;;;;;8.20;4.67;;;;;;;;;;5029660;28;20554;-86
2023/07/02 05:50:24;;;;;;;10.90;4.80;;;;;;;;;;5038285;28;20534;-87
2023/07/02 05:52:50;;;;;;;10.73;4.60;;;;;;;;;;5033965;28;20431;-85
2023/07/02 05:55:16;;;;;;;9.27;5.03;;;;;;;;;;5029762;28;20970;-87
2023/07/02 05:57:41;;;;;;;15.80;5.33;;;;;;;;;;5031154;28;20451;-85
2023/07/02 06:00:08;;;;;;;9.00;5.13;;;;;;;;;;5054162;28;20432;-86
2023/07/02 06:02:34;;;;;;;19.10;5.90;;;;;;;;;;5033980;28;20477;-84
2023/07/02 06:05:01;;;;;;;15.70;4.87;;;;;;;;;;5032751;28;20450;-87
2023/07/02 06:07:28;;;;;;;13.90;6.07;;;;;;;;;;5030756;28;20451;-86
2023/07/02 06:09:54;;;;;;;8.87;4.87;;;;;;;;;;5028743;28;20463;-86
2023/07/02 06:12:21;;;;;;;9.40;5.97;;;23.60;99.90;;;;;;5031235;28;20538;-85
2023/07/02 06:14:47;;;;;;;12.73;5.40;;;24.30;99.90;;;;;;5043950;28;20432;-86
2023/07/02 06:17:13;;;;;;;12.83;6.40;;;;;;;;;;5030555;28;20459;-84
2023/07/02 06:19:39;;;;;;;14.17;6.30;;;;;;;;;;5044107;28;20704;-86
2023/07/02 06:22:04;;;;;;;8.50;5.17;;;;;;;;;;5042728;28;20506;-87
2023/07/02 06:24:31;;;;;;;9.27;4.73;;;;;;;;;;5032130;28;20520;-85
2023/07/02 06:26:57;;;;;;;9.83;5.10;;;;;;;;;;5031568;28;21062;-83
2023/07/02 06:29:23;;;;;;;11.80;5.80;;;23.90;99.90;;;;;;5037924;28;21018;-85
2023/07/02 06:31:49;;;;;;;12.73;5.17;;;24.80;99.90;;;;;;5037022;28;20529;-85
2023/07/02 06:34:15;;;;;;;9.83;5.70;;;;;;;;;;5035034;28;20629;-86
2023/07/02 06:36:42;;;;;;;16.47;6.13;;;;;;;;;;5037437;28;20573;-83
2023/07/02 06:39:09;;;;;;;7.60;4.40;;;;;;;;;;5039932;28;20427;-83
2023/07/02 06:41:35;;;;;;;12.33;5.10;;;;;;;;;;5037747;28;20421;-83
2023/07/02 06:44:00;;;;;;;8.40;5.10;;;;;;;;;;5032621;28;20791;-82
2023/07/02 06:46:26;;;;;;;12.57;5.30;;;;;;;;;;5037185;28;20459;-86
2023/07/02 06:48:52;;;;;;;9.50;5.33;;;;;;;;;;5031652;28;20432;-89
2023/07/02 06:51:19;;;;;;;13.30;5.50;;;;;;;;;;5034602;28;20441;-85
2023/07/02 06:53:45;;;;;;;11.53;5.50;;;26.10;99.90;;;;;;5048158;28;20428;-83
2023/07/02 06:56:11;;;;;;;12.50;5.60;;;;;;;;;;5037387;28;20464;-85
2023/07/02 06:58:37;;;;;;;12.70;6.30;;;;;;;;;;5026604;28;20437;-86
2023/07/02 07:01:03;;;;;;;11.83;5.67;;;;;;;;;;5033603;28;20471;-86
2023/07/02 07:03:29;;;;;;;11.47;5.30;;;;;;;;;;5036208;28;21135;-87
2023/07/02 07:05:55;;;;;;;12.30;4.63;;;;;;;;;;5032398;28;20447;-84
2023/07/02 07:08:21;;;;;;;9.93;6.20;;;;;;;;;;5023433;28;20479;-87
2023/07/02 07:10:47;;;;;;;9.53;5.60;;;22.10;99.90;;;;;;5032317;28;20465;-87
2023/07/02 07:13:13;;;;;;;13.20;5.30;;;;;;;;;;5030932;28;20443;-85
2023/07/02 07:15:39;;;;;;;8.30;4.80;;;;;;;;;;5030156;28;20467;-85
2023/07/02 07:18:05;;;;;;;10.40;4.77;;;;;;;;;;5030732;28;20458;-86
2023/07/02 07:20:31;;;;;;;9.90;5.17;;;;;;;;;;5031738;28;20435;-85
2023/07/02 07:22:57;;;;;;;8.27;4.53;;;;;;;;;;5022984;28;20519;-86
2023/07/02 07:25:24;;;;;;;10.40;6.07;;;;;;;;;;5045530;28;20436;-86
2023/07/02 07:27:50;;;;;;;6.77;4.13;;;;;;;;;;5032686;28;20460;-87
2023/07/02 07:30:22;;;;;;;12.97;6.00;;;;;;;;;;5026795;28;21468;-86
2023/07/02 07:32:47;;;;;;;8.20;4.40;;;;;;;;;;5027648;28;20830;-86
2023/07/02 07:35:13;;;;;;;13.20;5.90;;;;;;;;;;5031308;28;20528;-87
2023/07/02 07:37:39;;;;;;;15.13;6.53;;;;;;;;;;5034034;28;20459;-87
2023/07/02 07:40:06;;;;;;;11.90;6.50;;;25.00;92.40;;;;;;5032742;28;20434;-84
2023/07/02 07:42:32;;;;;;;12.47;8.07;;;;;;;;;;5030914;28;20448;-85
2023/07/02 07:44:58;;;;;;;11.73;6.20;;;;;;;;;;5032246;28;20450;-87
2023/07/02 07:47:24;;;;;;;10.53;7.10;;;;;;;;;;5029165;28;20451;-87
2023/07/02 07:49:50;;;;;;;16.83;7.60;;;;;;;;;;5029323;28;20435;-86
2023/07/02 07:52:16;;;;;;;11.20;6.30;;;;;;;;;;5032001;28;20427;-86
2023/07/02 07:54:42;;;;;;;13.43;6.87;;;;;;;;;;5021243;28;22080;-87
2023/07/02 07:57:08;;;;;;;14.53;6.33;;;;;;;;;;5027700;28;20501;-86
2023/07/02 07:59:34;;;;;;;11.73;5.77;;;;;;;;;;5039498;28;20577;-85
2023/07/02 08:02:00;;;;;;;15.13;7.10;;;;;;;;;;5040081;28;20419;-88
2023/07/02 08:04:26;;;;;;;8.80;6.20;;;;;;;;;;5032586;28;20470;-88
2023/07/02 08:06:52;;;;;;;13.67;7.53;;;;;;;;;;5048943;28;20753;-85
2023/07/02 08:09:18;;;;;;;15.70;7.80;;;;;;;;;;5036047;28;20455;-87
2023/07/02 08:11:43;;;;;;;11.33;7.00;;;;;;;;;;5031161;28;20831;-86
2023/07/02 08:14:09;;;;;;;16.97;8.60;;;;;;;;;;5023798;28;20451;-86
2023/07/02 08:16:35;;;;;;;14.03;8.00;;;;;;;;;;5026935;28;20478;-88
2023/07/02 08:19:02;;;;;;;18.37;8.70;;;22.30;91.20;;;;;;5024905;28;20431;-89
2023/07/02 08:21:27;;;;;;;20.27;9.37;;;;;;;;;;5045534;28;20440;-88
2023/07/02 08:23:53;;;;;;;18.30;9.03;;;;;;;;;;5034243;28;21940;-88
2023/07/02 08:26:20;;;;;;;16.90;8.70;;;;;;;;;;5045207;28;20518;-87
2023/07/02 08:28:46;;;;;;;19.10;9.23;;;;;;;;;;5028675;28;20449;-87
2023/07/02 08:31:11;;;;;;;16.67;9.50;;;;;;;;;;5031329;28;20436;-86
2023/07/02 08:33:37;;;;;;;21.20;9.77;;;;;;;;;;5024089;28;20436;-86
2023/07/02 08:36:03;;;;;;;20.20;9.57;;;;;;;;;;5027630;28;20538;-85
2023/07/02 08:38:29;;;;;;;17.90;9.67;;;;;;;;;;5026142;28;20963;-86
2023/07/02 08:40:55;;;;;;;22.73;9.67;;;;;;;;;;5031894;28;20432;-88
2023/07/02 08:43:23;;;;;;;15.87;8.47;;;23.90;84.60;;;;;;5025331;28;20824;-88
2023/07/02 08:45:49;;;;;;;15.27;8.77;;;;;;;;;;5046295;28;20438;-87
2023/07/02 08:48:15;;;;;;;19.33;9.20;;;;;;;;;;5025545;28;20540;-86
2023/07/02 08:50:42;;;;;;;21.23;10.60;;;24.00;94.80;;;;;;5036501;28;20995;-86
2023/07/02 08:53:08;;;;;;;26.67;11.43;;;;;;;;;;5033997;28;20466;-86
2023/07/02 08:55:34;;;;;;;19.30;9.57;;;;;;;;;;5032126;28;20885;-87
2023/07/02 08:58:00;;;;;;;22.43;10.90;;;;;;;;;;5033939;28;20457;-88
2023/07/02 09:00:26;;;;;;;28.07;11.03;;;24.00;90.50;;;;;;5035135;28;20424;-86
2023/07/02 09:02:52;;;;;;;20.33;10.67;;;;;;;;;;5032622;28;20438;-86
2023/07/02 09:05:18;;;;;;;29.03;11.83;;;;;;;;;;5026974;28;20427;-86
2023/07/02 09:07:46;;;;;;;30.20;11.13;;;21.60;93.10;;;;;;5033529;28;20566;-88
2023/07/02 09:10:12;;;;;;;29.37;12.37;;;;;;;;;;5032555;28;20431;-87
2023/07/02 09:12:39;;;;;;;25.83;11.70;;;;;;;;;;5046821;28;20437;-87
2023/07/02 09:15:06;;;;;;;22.10;10.23;;;21.50;92.90;;;;;;5035127;28;20509;-87
2023/07/02 09:17:38;;;;;;;23.33;10.80;;;21.70;93.10;;;;;;5036008;28;20462;-88
2023/07/02 09:20:08;;;;;;;29.50;13.50;;;22.60;92.30;;;;;;5055845;28;20811;-87
2023/07/02 09:22:34;;;;;;;23.83;12.00;;;;;;;;;;5039620;28;20436;-87
2023/07/02 09:25:01;;;;;;;25.53;11.13;;;22.30;93.20;;;;;;5050907;28;20435;-87
2023/07/02 09:27:35;;;;;;;25.27;11.43;;;22.30;92.00;;;;;;5037046;28;20540;-88
2023/07/02 09:30:06;;;;;;;21.90;10.57;;;22.00;90.50;;;;;;5037321;28;20458;-88
2023/07/02 09:32:32;;;;;;;30.27;11.47;;;;;;;;;;5031738;28;20442;-89
2023/07/02 09:34:59;;;;;;;19.03;10.80;;;;;;;;;;5037732;28;21009;-88
2023/07/02 09:37:25;;;;;;;17.07;9.77;;;;;;;;;;5039324;28;20481;-87
2023/07/02 09:39:52;;;;;;;18.50;10.07;;;23.50;88.70;;;;;;5033994;28;20470;-89
2023/07/02 09:42:19;;;;;;;33.67;13.50;;;;;;;;;;5030237;28;20485;-89
2023/07/02 09:44:45;;;;;;;22.30;12.20;;;;;;;;;;5037469;28;20443;-87
2023/07/02 09:47:13;;;;;;;21.83;9.77;;;22.10;90.20;;;;;;5035218;28;20480;-89
2023/07/02 09:49:41;;;;;;;22.40;12.23;;;22.60;90.70;;;;;;5035838;28;20437;-88
2023/07/02 09:52:08;;;;;;;27.63;11.87;;;22.80;91.40;;;;;;5041875;28;20435;-86
2023/07/02 09:54:35;;;;;;;20.67;11.43;;;23.00;91.20;;;;;;5038969;28;20959;-86
2023/07/02 09:57:01;;;;;;;24.57;10.80;;;23.60;90.60;;;;;;5039742;28;20483;-86
2023/07/02 09:59:28;;;;;;;26.60;11.93;;;;;;;;;;5051061;28;20440;-88
2023/07/02 10:01:54;;;;;;;20.07;9.43;;;;;;;;;;5038031;28;20566;-87
2023/07/02 10:04:23;;;;;;;19.40;10.37;;;22.60;89.10;;;;;;5037489;28;20439;-88
2023/07/02 10:06:54;;;;;;;28.07;12.70;;;22.40;91.70;;;;;;5036530;28;20467;-87
2023/07/02 10:09:33;;;;;;;22.13;10.90;;;23.10;90.20;;;;;;5022797;28;20454;-88
2023/07/02 10:12:00;;;;;;;25.27;11.87;;;;;;;;;;5026741;28;21037;-86
2023/07/02 10:14:26;;;;;;;15.93;10.73;;;;;;;;;;5024282;28;20447;-87
2023/07/02 10:16:55;;;;;;;26.50;12.37;;;22.40;91.00;;;;;;5026688;28;20594;-86
2023/07/02 10:19:21;;;;;;;25.20;13.10;;;22.10;92.70;;;;;;5025033;28;20431;-87
2023/07/02 10:22:04;;;;;;;20.20;10.70;;;21.80;91.80;;;;;;5022230;28;20448;-87
2023/07/02 10:24:30;;;;;;;27.23;12.17;;;21.30;93.20;;;;;;5024528;28;20753;-88
2023/07/02 10:26:58;;;;;;;20.83;10.23;;;21.80;92.90;;;;;;5030636;28;20459;-86
2023/07/02 10:29:24;;;;;;;24.47;11.60;;;21.80;93.60;;;;;;5032104;28;20455;-87
2023/07/02 10:31:51;;;;;;;23.33;10.20;;;22.10;94.60;;;;;;5028371;28;20455;-88
2023/07/02 10:34:28;;;;;;;27.33;11.77;;;23.50;92.40;;;;;;5030706;28;20559;-88
2023/07/02 10:36:54;;;;;;;22.57;11.40;;;24.10;92.00;;;;;;5031459;28;20916;-87
2023/07/02 10:39:29;;;;;;;18.70;10.40;;;24.10;90.90;;;;;;5022732;28;20439;-87
2023/07/02 10:42:07;;;;;;;19.40;11.27;;;23.70;91.10;;;;;;5025897;28;21124;-87
2023/07/02 10:44:33;;;;;;;22.13;10.30;;;;;;;;;;5027009;28;20448;-87
2023/07/02 10:46:59;;;;;;;25.07;11.27;;;;;;;;;;5033894;28;20536;-89
2023/07/02 10:49:32;;;;;;;22.13;11.73;;;22.50;93.20;;;;;;5032731;28;20427;-87
2023/07/02 10:52:03;;;;;;;25.63;11.60;;;21.50;94.10;;;;;;5030395;28;20478;-87
2023/07/02 10:54:40;;;;;;;21.17;11.50;;;21.70;94.70;;;;;;5042498;28;20533;-86
2023/07/02 10:57:06;;;;;;;24.77;10.50;;;;;;;;;;5028557;28;20497;-86
2023/07/02 10:59:32;;;;;;;24.93;10.50;;;;;;;;;;5029389;28;21012;-87
2023/07/02 11:02:01;;;;;;;20.03;11.50;;;;;;;;;;5030647;28;20457;-87
2023/07/02 11:04:28;;;;;;;18.73;10.50;;;;;;;;;;5032774;28;20516;-87
2023/07/02 11:06:53;;;;;;;23.60;11.83;;;;;;;;;;5022906;28;20457;-88
2023/07/02 11:09:20;;;;;;;44.33;12.00;;;;;;;;;;5032498;28;20448;-86
2023/07/02 11:11:54;;;;;;;25.83;11.37;;;22.00;97.10;;;;;;5053494;28;20739;-88
2023/07/02 11:14:31;;;;;;;23.67;11.70;;;22.40;95.20;;;;;;5034756;28;20503;-88
2023/07/02 11:16:57;;;;;;;26.07;11.57;;;22.20;95.70;;;;;;5032864;28;20478;-86
2023/07/02 11:19:24;;;;;;;21.80;10.87;;;22.50;95.20;;;;;;5035094;28;20439;-87
2023/07/02 11:21:57;;;;;;;27.80;12.70;;;22.30;95.40;;;;;;5036961;28;20432;-87
2023/07/02 11:24:41;;;;;;;23.17;13.73;;;22.50;94.80;;;;;;5026325;28;20490;-86
2023/07/02 11:27:07;;;;;;;26.90;12.33;;;;;;;;;;5034567;28;20550;-86
2023/07/02 11:29:36;;;;;;;23.43;11.70;;;23.10;95.60;;;;;;5035916;28;20442;-87
2023/07/02 11:32:09;;;;;;;21.60;11.50;;;23.00;91.40;;;;;;5037260;28;20446;-87
2023/07/02 11:34:35;;;;;;;25.40;12.33;;;23.20;91.20;;;;;;5055536;28;21196;-88
2023/07/02 11:37:03;;;;;;;30.00;11.93;;;;;;;;;;5034822;28;20889;-87
2023/07/02 11:39:29;;;;;;;20.97;11.03;;;;;;;;;;5037101;28;20498;-87
2023/07/02 11:41:55;;;;;;;18.00;10.70;;;;;;;;;;5037706;28;20439;-87
2023/07/02 11:44:21;;;;;;;21.87;9.50;;;;;;;;;;5035637;28;20451;-88
2023/07/02 11:46:47;;;;;;;25.73;11.43;;;;;;;;;;5046421;28;20954;-86
2023/07/02 11:49:13;;;;;;;20.37;11.90;;;;;;;;;;5034885;28;20563;-86
2023/07/02 11:51:40;;;;;;;15.73;9.67;;;23.50;90.10;;;;;;5030810;28;20474;-87
2023/07/02 11:54:07;;;;;;;18.10;9.97;;;23.70;90.80;;;;;;5054155;28;21130;-87
2023/07/02 11:56:33;;;;;;;27.30;12.07;;;;;;;;;;5038040;28;20468;-85
2023/07/02 11:58:59;;;;;;;26.27;11.23;;;;;;;;;;5036834;28;20440;-87
2023/07/02 12:01:25;;;;;;;25.07;10.17;;;;;;;;;;5034355;28;20435;-87
2023/07/02 12:03:51;;;;;;;22.07;11.60;;;;;;;;;;5038341;28;20484;-85
2023/07/02 12:06:17;;;;;;;22.17;11.10;;;;;;;;;;5034503;28;20461;-87
2023/07/02 12:08:43;;;;;;;19.70;10.63;;;24.60;89.80;;;;;;5038024;28;20440;-88
2023/07/02 12:11:09;;;;;;;23.50;11.80;;;;;;;;;;5049016;28;20527;-88
2023/07/02 12:13:35;;;;;;;20.67;10.57;;;;;;;;;;5041168;28;20251;-87
2023/07/02 12:16:01;;;;;;;25.23;11.70;;;24.00;83.80;;;;;;5031008;28;20468;-87
2023/07/02 12:18:27;;;;;;;24.37;10.27;;;;;;;;;;5027754;28;20452;-88
2023/07/02 12:20:53;;;;;;;17.03;9.80;;;;;;;;;;5030062;28;20816;-88
2023/07/02 12:23:19;;;;;;;24.40;11.90;;;;;;;;;;5033029;28;20431;-86
2023/07/02 12:25:45;;;;;;;21.73;10.33;;;;;;;;;;5026634;28;21021;-87
2023/07/02 12:28:10;;;;;;;23.33;11.50;;;;;;;;;;5027848;28;20512;-86
2023/07/02 12:30:36;;;;;;;20.77;10.47;;;;;;;;;;5024513;28;20466;-86
2023/07/02 12:33:02;;;;;;;21.07;13.50;;;;;;;;;;5033199;28;20443;-88
2023/07/02 12:35:29;;;;;;;19.47;11.57;;;;;;;;;;5027927;28;20459;-87
2023/07/02 12:37:55;;;;;;;19.10;10.30;;;;;;;;;;5047339;28;20459;-87
2023/07/02 12:40:21;;;;;;;26.93;11.37;;;;;;;;;;5038423;28;20436;-85
2023/07/02 12:42:47;;;;;;;14.73;9.03;;;22.40;86.90;;;;;;5039309;28;20440;-88
2023/07/02 12:45:14;;;;;;;32.67;13.17;;;23.30;90.30;;;;;;5049494;28;20451;-87
2023/07/02 12:47:41;;;;;;;26.33;13.40;;;23.60;88.50;;;;;;5035556;28;20459;-86
2023/07/02 12:50:07;;;;;;;24.47;11.47;;;23.60;84.90;;;;;;5039492;28;20439;-86
2023/07/02 12:52:33;;;;;;;20.90;10.40;;;;;;;;;;5038112;28;20460;-88
2023/07/02 12:55:00;;;;;;;20.87;11.20;;;;;;;;;;5023849;28;20967;-85
2023/07/02 12:57:26;;;;;;;21.97;10.30;;;;;;;;;;5050868;28;20470;-85
2023/07/02 12:59:55;;;;;;;20.03;11.00;;;24.30;83.70;;;;;;5035003;28;20448;-86
2023/07/02 13:02:24;;;;;;;26.27;11.63;;;24.20;82.40;;;;;;5031109;28;20443;-86
2023/07/02 13:04:51;;;;;;;23.20;11.23;;;24.50;83.30;;;;;;5035589;28;20423;-87
2023/07/02 13:07:17;;;;;;;28.83;10.90;;;24.20;85.00;;;;;;5036100;28;20524;-87
2023/07/02 13:09:43;;;;;;;24.67;10.90;;;;;;;;;;5056517;28;20447;-84
2023/07/02 13:12:09;;;;;;;19.47;10.63;;;;;;;;;;5038880;28;20433;-86
2023/07/02 13:14:35;;;;;;;28.07;11.03;;;;;;;;;;5034176;28;20432;-87
2023/07/02 13:17:03;;;;;;;24.07;10.90;;;;;;;;;;5034238;28;20474;-86
2023/07/02 13:19:29;;;;;;;20.47;9.93;;;;;;;;;;5034803;28;20515;-86
2023/07/02 13:21:55;;;;;;;17.97;10.80;;;;;;;;;;5030678;28;20435;-86
2023/07/02 13:24:21;;;;;;;17.67;9.33;;;;;;;;;;5027606;28;20456;-86
2023/07/02 13:26:47;;;;;;;16.33;9.47;;;;;;;;;;5031938;28;21202;-86
2023/07/02 13:29:13;;;;;;;18.37;10.07;;;;;;;;;;5026859;28;21294;-87
2023/07/02 13:31:39;;;;;;;16.07;9.50;;;;;;;;;;5034254;28;20463;-87
2023/07/02 13:34:05;;;;;;;23.67;11.57;;;;;;;;;;5030907;28;20997;-86
2023/07/02 13:36:30;;;;;;;24.40;10.73;;;;;;;;;;5033641;28;20544;-86
2023/07/02 13:38:56;;;;;;;22.67;12.00;;;;;;;;;;5035492;28;20440;-86
2023/07/02 13:41:22;;;;;;;20.83;12.30;;;;;;;;;;5027048;28;20439;-86
2023/07/02 13:43:48;;;;;;;21.53;11.37;;;;;;;;;;5030937;28;21208;-86
2023/07/02 13:46:14;;;;;;;18.67;11.10;;;;;;;;;;5034921;28;20443;-87
2023/07/02 13:48:40;;;;;;;17.90;8.43;;;24.30;70.10;;;;;;5032936;28;20435;-88
2023/07/02 13:51:08;;;;;;;18.43;9.60;;;;;;;;;;5036400;28;20438;-87
2023/07/02 13:53:34;;;;;;;18.30;10.40;;;24.10;69.30;;;;;;5031337;28;20436;-88
2023/07/02 13:56:00;;;;;;;15.63;9.73;;;;;;;;;;5034436;28;20469;-86